sensor_id;sensor_type;location;lat;lon;timestamp;temperature;humidity
17859;DHT22;35426;30.698;104.050;2022-07-06T02:33:03;43.80;68.80
17859;DHT22;35426;30.698;104.050;2022-07-06T02:35:53;43.70;69.50
17859;DHT22;35426;30.698;104.050;2022-07-06T02:38:26;43.50;69.50
17859;DHT22;35426;30.698;104.050;2022-07-06T02:41:00;43.30;70.40
17859;DHT22;35426;30.698;104.050;2022-07-06T02:43:40;42.80;70.10
17859;DHT22;35426;30.698;104.050;2022-07-06T02:46:18;43.00;71.10
17859;DHT22;35426;30.698;104.050;2022-07-06T02:48:55;43.00;71.50
17859;DHT22;35426;30.698;104.050;2022-07-06T02:51:29;43.90;71.10
17859;DHT22;35426;30.698;104.050;2022-07-06T02:54:02;44.40;70.40
17859;DHT22;35426;30.698;104.050;2022-07-06T02:56:36;43.90;70.00
17859;DHT22;35426;30.698;104.050;2022-07-06T02:59:18;44.40;70.20
17859;DHT22;35426;30.698;104.050;2022-07-06T03:02:08;43.30;70.70
17859;DHT22;35426;30.698;104.050;2022-07-06T03:04:44;44.60;70.90
17859;DHT22;35426;30.698;104.050;2022-07-06T03:07:34;44.10;71.00
17859;DHT22;35426;30.698;104.050;2022-07-06T03:10:09;43.50;71.20
17859;DHT22;35426;30.698;104.050;2022-07-06T03:12:55;43.40;71.70
17859;DHT22;35426;30.698;104.050;2022-07-06T03:15:29;43.90;72.10
17859;DHT22;35426;30.698;104.050;2022-07-06T03:18:03;44.20;71.70
17859;DHT22;35426;30.698;104.050;2022-07-06T03:20:40;43.70;72.10
17859;DHT22;35426;30.698;104.050;2022-07-06T03:23:32;42.70;72.10
17859;DHT22;35426;30.698;104.050;2022-07-06T03:26:07;43.90;71.30
17859;DHT22;35426;30.698;104.050;2022-07-06T03:28:40;43.20;71.80
17859;DHT22;35426;30.698;104.050;2022-07-06T03:31:14;43.30;72.90
17859;DHT22;35426;30.698;104.050;2022-07-06T03:34:10;44.00;70.90
17859;DHT22;35426;30.698;104.050;2022-07-06T03:37:03;43.30;71.30
17859;DHT22;35426;30.698;104.050;2022-07-06T03:39:55;43.10;71.50
17859;DHT22;35426;30.698;104.050;2022-07-06T03:42:29;42.40;72.20
17859;DHT22;35426;30.698;104.050;2022-07-06T03:45:38;41.80;72.60
17859;DHT22;35426;30.698;104.050;2022-07-06T03:48:12;42.30;72.40
17859;DHT22;35426;30.698;104.050;2022-07-06T03:50:46;41.30;72.30
17859;DHT22;35426;30.698;104.050;2022-07-06T03:53:22;41.10;73.30
17859;DHT22;35426;30.698;104.050;2022-07-06T03:55:56;40.90;73.00
17859;DHT22;35426;30.698;104.050;2022-07-06T03:58:47;40.20;74.20
17859;DHT22;35426;30.698;104.050;2022-07-06T04:01:54;39.90;75.20
17859;DHT22;35426;30.698;104.050;2022-07-06T04:04:28;39.80;76.10
17859;DHT22;35426;30.698;104.050;2022-07-06T04:07:19;39.40;77.30
17859;DHT22;35426;30.698;104.050;2022-07-06T04:09:55;39.20;78.50
17859;DHT22;35426;30.698;104.050;2022-07-06T04:12:28;39.90;78.50
17859;DHT22;35426;30.698;104.050;2022-07-06T04:15:20;40.00;77.50
17859;DHT22;35426;30.698;104.050;2022-07-06T04:17:54;39.80;76.50
17859;DHT22;35426;30.698;104.050;2022-07-06T04:20:50;39.40;77.10
17859;DHT22;35426;30.698;104.050;2022-07-06T04:23:25;39.40;78.00
17859;DHT22;35426;30.698;104.050;2022-07-06T04:26:02;38.90;75.20
17859;DHT22;35426;30.698;104.050;2022-07-06T04:28:39;38.70;76.40
17859;DHT22;35426;30.698;104.050;2022-07-06T04:31:13;38.70;76.30
17859;DHT22;35426;30.698;104.050;2022-07-06T04:33:50;38.40;76.00
17859;DHT22;35426;30.698;104.050;2022-07-06T04:36:26;38.00;74.20
17859;DHT22;35426;30.698;104.050;2022-07-06T04:39:00;38.20;74.70
17859;DHT22;35426;30.698;104.050;2022-07-06T04:41:37;38.40;73.40
17859;DHT22;35426;30.698;104.050;2022-07-06T04:44:10;38.50;74.20
17859;DHT22;35426;30.698;104.050;2022-07-06T04:46:45;38.90;74.30
17859;DHT22;35426;30.698;104.050;2022-07-06T04:49:20;39.10;75.10
17859;DHT22;35426;30.698;104.050;2022-07-06T04:51:55;39.00;75.00
17859;DHT22;35426;30.698;104.050;2022-07-06T04:54:30;38.60;75.90
17859;DHT22;35426;30.698;104.050;2022-07-06T04:57:08;38.30;76.80
17859;DHT22;35426;30.698;104.050;2022-07-06T04:59:43;38.20;76.90
17859;DHT22;35426;30.698;104.050;2022-07-06T05:02:17;38.30;78.10
17859;DHT22;35426;30.698;104.050;2022-07-06T05:04:54;38.40;77.80
17859;DHT22;35426;30.698;104.050;2022-07-06T05:07:28;38.50;77.90
17859;DHT22;35426;30.698;104.050;2022-07-06T05:10:25;38.30;78.00
17859;DHT22;35426;30.698;104.050;2022-07-06T05:13:19;38.20;78.20
17859;DHT22;35426;30.698;104.050;2022-07-06T05:16:17;38.50;77.00
17859;DHT22;35426;30.698;104.050;2022-07-06T05:18:52;38.40;77.10
17859;DHT22;35426;30.698;104.050;2022-07-06T05:21:45;38.30;78.10
17859;DHT22;35426;30.698;104.050;2022-07-06T05:24:19;38.50;78.90
17859;DHT22;35426;30.698;104.050;2022-07-06T05:26:53;38.30;78.50
17859;DHT22;35426;30.698;104.050;2022-07-06T05:29:29;38.40;77.00
17859;DHT22;35426;30.698;104.050;2022-07-06T05:32:04;38.40;76.50
17859;DHT22;35426;30.698;104.050;2022-07-06T05:34:38;38.40;75.90
17859;DHT22;35426;30.698;104.050;2022-07-06T05:37:12;38.40;76.80
17859;DHT22;35426;30.698;104.050;2022-07-06T05:39:47;38.20;77.30
17859;DHT22;35426;30.698;104.050;2022-07-06T05:42:21;38.40;77.30
17859;DHT22;35426;30.698;104.050;2022-07-06T05:45:00;38.20;76.20
17859;DHT22;35426;30.698;104.050;2022-07-06T05:47:34;38.00;75.70
17859;DHT22;35426;30.698;104.050;2022-07-06T05:50:26;38.00;75.50
17859;DHT22;35426;30.698;104.050;2022-07-06T05:53:00;38.10;74.70
17859;DHT22;35426;30.698;104.050;2022-07-06T05:55:49;37.90;74.10
17859;DHT22;35426;30.698;104.050;2022-07-06T05:58:23;37.40;75.70
17859;DHT22;35426;30.698;104.050;2022-07-06T06:01:02;37.30;75.60
17859;DHT22;35426;30.698;104.050;2022-07-06T06:03:57;37.50;75.10
17859;DHT22;35426;30.698;104.050;2022-07-06T06:12:21;38.00;75.00
17859;DHT22;35426;30.698;104.050;2022-07-06T06:15:04;38.30;75.30
17859;DHT22;35426;30.698;104.050;2022-07-06T06:17:40;38.40;75.80
17859;DHT22;35426;30.698;104.050;2022-07-06T06:20:15;38.50;75.70
17859;DHT22;35426;30.698;104.050;2022-07-06T06:22:49;38.70;75.70
17859;DHT22;35426;30.698;104.050;2022-07-06T06:25:29;38.60;76.20
17859;DHT22;35426;30.698;104.050;2022-07-06T06:28:04;38.70;75.40
17859;DHT22;35426;30.698;104.050;2022-07-06T06:30:39;38.80;75.20
17859;DHT22;35426;30.698;104.050;2022-07-06T06:36:06;38.70;76.00
17859;DHT22;35426;30.698;104.050;2022-07-06T06:38:40;38.70;76.40
17859;DHT22;35426;30.698;104.050;2022-07-06T06:41:14;38.50;75.90
17859;DHT22;35426;30.698;104.050;2022-07-06T06:43:49;38.60;75.30
17859;DHT22;35426;30.698;104.050;2022-07-06T06:46:41;38.60;75.10
17859;DHT22;35426;30.698;104.050;2022-07-06T06:49:17;38.30;73.80
17859;DHT22;35426;30.698;104.050;2022-07-06T06:51:51;38.10;74.50
17859;DHT22;35426;30.698;104.050;2022-07-06T06:57:36;38.60;74.40
17859;DHT22;35426;30.698;104.050;2022-07-06T07:00:13;38.50;73.30
17859;DHT22;35426;30.698;104.050;2022-07-06T07:02:47;38.50;73.70
17859;DHT22;35426;30.698;104.050;2022-07-06T07:05:22;38.60;73.30
17859;DHT22;35426;30.698;104.050;2022-07-06T07:08:17;38.60;74.40
17859;DHT22;35426;30.698;104.050;2022-07-06T07:10:51;38.60;72.80
17859;DHT22;35426;30.698;104.050;2022-07-06T07:13:25;38.40;73.50
17859;DHT22;35426;30.698;104.050;2022-07-06T07:15:59;38.50;73.70
17859;DHT22;35426;30.698;104.050;2022-07-06T07:18:33;38.40;72.50
17859;DHT22;35426;30.698;104.050;2022-07-06T07:21:09;38.60;72.80
17859;DHT22;35426;30.698;104.050;2022-07-06T07:23:43;38.60;72.60
17859;DHT22;35426;30.698;104.050;2022-07-06T07:26:35;38.80;71.40
17859;DHT22;35426;30.698;104.050;2022-07-06T07:29:08;38.80;71.90
17859;DHT22;35426;30.698;104.050;2022-07-06T07:31:42;38.70;72.10
17859;DHT22;35426;30.698;104.050;2022-07-06T07:34:15;38.60;72.20
17859;DHT22;35426;30.698;104.050;2022-07-06T07:36:52;38.70;72.00
17859;DHT22;35426;30.698;104.050;2022-07-06T07:39:26;39.10;71.50
17859;DHT22;35426;30.698;104.050;2022-07-06T07:42:00;39.00;71.10
17859;DHT22;35426;30.698;104.050;2022-07-06T07:44:33;38.70;71.20
17859;DHT22;35426;30.698;104.050;2022-07-06T07:47:07;38.80;71.30
17859;DHT22;35426;30.698;104.050;2022-07-06T07:49:40;39.00;71.60
17859;DHT22;35426;30.698;104.050;2022-07-06T07:52:34;39.00;71.60
17859;DHT22;35426;30.698;104.050;2022-07-06T07:55:23;39.20;71.90
17859;DHT22;35426;30.698;104.050;2022-07-06T07:58:10;39.30;72.10
17859;DHT22;35426;30.698;104.050;2022-07-06T08:00:44;39.20;71.70
17859;DHT22;35426;30.698;104.050;2022-07-06T08:03:21;39.10;71.10
17859;DHT22;35426;30.698;104.050;2022-07-06T08:06:10;39.20;71.40
17859;DHT22;35426;30.698;104.050;2022-07-06T08:08:47;39.10;72.40
17859;DHT22;35426;30.698;104.050;2022-07-06T08:11:21;39.10;72.40
17859;DHT22;35426;30.698;104.050;2022-07-06T08:13:56;39.10;72.30
17859;DHT22;35426;30.698;104.050;2022-07-06T08:16:45;38.90;70.90
17859;DHT22;35426;30.698;104.050;2022-07-06T08:19:19;38.80;70.40
17859;DHT22;35426;30.698;104.050;2022-07-06T08:21:55;39.00;70.30
17859;DHT22;35426;30.698;104.050;2022-07-06T08:27:21;39.00;70.10
17859;DHT22;35426;30.698;104.050;2022-07-06T08:29:55;39.10;69.20
17859;DHT22;35426;30.698;104.050;2022-07-06T08:32:29;39.00;69.70
17859;DHT22;35426;30.698;104.050;2022-07-06T08:35:23;39.10;70.50
17859;DHT22;35426;30.698;104.050;2022-07-06T08:37:58;39.20;69.40
17859;DHT22;35426;30.698;104.050;2022-07-06T08:40:35;39.20;69.70
17859;DHT22;35426;30.698;104.050;2022-07-06T08:43:09;39.20;69.90
17859;DHT22;35426;30.698;104.050;2022-07-06T08:45:47;39.20;68.60
17859;DHT22;35426;30.698;104.050;2022-07-06T08:48:23;39.20;68.80
17859;DHT22;35426;30.698;104.050;2022-07-06T08:50:57;39.20;69.00
17859;DHT22;35426;30.698;104.050;2022-07-06T08:53:31;38.60;70.70
17859;DHT22;35426;30.698;104.050;2022-07-06T08:56:08;38.30;71.60
17859;DHT22;35426;30.698;104.050;2022-07-06T08:58:43;38.30;72.00
17859;DHT22;35426;30.698;104.050;2022-07-06T09:01:17;38.60;72.10
17859;DHT22;35426;30.698;104.050;2022-07-06T09:03:52;38.70;70.90
17859;DHT22;35426;30.698;104.050;2022-07-06T09:06:28;38.70;71.10
17859;DHT22;35426;30.698;104.050;2022-07-06T09:09:06;38.80;70.30
17859;DHT22;35426;30.698;104.050;2022-07-06T09:11:42;39.00;69.80
17859;DHT22;35426;30.698;104.050;2022-07-06T09:14:16;38.70;69.50
17859;DHT22;35426;30.698;104.050;2022-07-06T09:17:02;38.90;70.40
17859;DHT22;35426;30.698;104.050;2022-07-06T09:19:46;39.10;69.90
17859;DHT22;35426;30.698;104.050;2022-07-06T09:22:36;39.10;69.50
17859;DHT22;35426;30.698;104.050;2022-07-06T09:25:11;39.20;69.00
17859;DHT22;35426;30.698;104.050;2022-07-06T09:27:48;39.10;68.40
17859;DHT22;35426;30.698;104.050;2022-07-06T09:30:25;38.90;68.30
17859;DHT22;35426;30.698;104.050;2022-07-06T09:33:00;38.80;68.40
17859;DHT22;35426;30.698;104.050;2022-07-06T09:38:31;38.90;68.40
17859;DHT22;35426;30.698;104.050;2022-07-06T09:41:32;38.90;68.70
17859;DHT22;35426;30.698;104.050;2022-07-06T09:44:10;38.80;69.60
17859;DHT22;35426;30.698;104.050;2022-07-06T09:46:47;38.90;69.60
17859;DHT22;35426;30.698;104.050;2022-07-06T09:49:38;38.90;70.40
17859;DHT22;35426;30.698;104.050;2022-07-06T09:52:25;38.80;70.30
17859;DHT22;35426;30.698;104.050;2022-07-06T09:54:58;39.00;69.90
17859;DHT22;35426;30.698;104.050;2022-07-06T09:57:32;38.70;69.00
17859;DHT22;35426;30.698;104.050;2022-07-06T10:00:09;38.70;68.50
17859;DHT22;35426;30.698;104.050;2022-07-06T10:02:44;38.80;68.20
17859;DHT22;35426;30.698;104.050;2022-07-06T10:05:24;38.90;68.30
17859;DHT22;35426;30.698;104.050;2022-07-06T10:08:20;38.80;68.70
17859;DHT22;35426;30.698;104.050;2022-07-06T10:11:07;38.70;68.30
17859;DHT22;35426;30.698;104.050;2022-07-06T10:14:05;38.60;69.10
17859;DHT22;35426;30.698;104.050;2022-07-06T10:19:33;38.00;72.60
17859;DHT22;35426;30.698;104.050;2022-07-06T10:22:09;37.80;72.90
17859;DHT22;35426;30.698;104.050;2022-07-06T10:24:43;37.70;73.00
17859;DHT22;35426;30.698;104.050;2022-07-06T10:27:36;37.80;73.00
17859;DHT22;35426;30.698;104.050;2022-07-06T10:30:11;38.00;73.10
17859;DHT22;35426;30.698;104.050;2022-07-06T10:32:49;38.00;71.60
17859;DHT22;35426;30.698;104.050;2022-07-06T10:35:41;37.80;70.80
17859;DHT22;35426;30.698;104.050;2022-07-06T10:38:16;37.70;71.70
17859;DHT22;35426;30.698;104.050;2022-07-06T10:41:14;37.60;70.60
17859;DHT22;35426;30.698;104.050;2022-07-06T10:43:47;37.40;70.30
17859;DHT22;35426;30.698;104.050;2022-07-06T10:46:35;37.30;70.20
17859;DHT22;35426;30.698;104.050;2022-07-06T10:49:18;37.20;70.50
17859;DHT22;35426;30.698;104.050;2022-07-06T10:52:13;37.00;71.50
17859;DHT22;35426;30.698;104.050;2022-07-06T10:54:50;37.00;71.60
17859;DHT22;35426;30.698;104.050;2022-07-06T10:57:30;37.00;71.80
17859;DHT22;35426;30.698;104.050;2022-07-06T11:00:24;37.00;71.70
17859;DHT22;35426;30.698;104.050;2022-07-06T11:02:58;36.90;71.80
17859;DHT22;35426;30.698;104.050;2022-07-06T11:06:01;36.90;71.60
17859;DHT22;35426;30.698;104.050;2022-07-06T11:08:54;36.80;71.70
17859;DHT22;35426;30.698;104.050;2022-07-06T11:11:40;36.80;71.10
17859;DHT22;35426;30.698;104.050;2022-07-06T11:14:17;36.70;70.90
17859;DHT22;35426;30.698;104.050;2022-07-06T11:19:56;36.80;70.40
17859;DHT22;35426;30.698;104.050;2022-07-06T11:22:33;36.80;69.80
17859;DHT22;35426;30.698;104.050;2022-07-06T11:25:09;36.80;70.30
17859;DHT22;35426;30.698;104.050;2022-07-06T11:27:44;36.70;69.70
17859;DHT22;35426;30.698;104.050;2022-07-06T11:30:21;36.70;70.70
17859;DHT22;35426;30.698;104.050;2022-07-06T11:33:28;36.50;70.90
17859;DHT22;35426;30.698;104.050;2022-07-06T11:36:16;36.60;71.50
17859;DHT22;35426;30.698;104.050;2022-07-06T11:38:52;36.50;71.90
17859;DHT22;35426;30.698;104.050;2022-07-06T11:41:26;36.50;72.20
17859;DHT22;35426;30.698;104.050;2022-07-06T11:44:00;36.40;72.40
17859;DHT22;35426;30.698;104.050;2022-07-06T11:46:51;36.40;72.80
17859;DHT22;35426;30.698;104.050;2022-07-06T11:49:27;36.30;72.80
17859;DHT22;35426;30.698;104.050;2022-07-06T11:52:06;36.30;73.30
17859;DHT22;35426;30.698;104.050;2022-07-06T11:54:43;36.30;73.20
17859;DHT22;35426;30.698;104.050;2022-07-06T11:57:17;36.30;73.50
17859;DHT22;35426;30.698;104.050;2022-07-06T11:59:52;36.20;73.70
17859;DHT22;35426;30.698;104.050;2022-07-06T12:02:27;36.20;73.80
17859;DHT22;35426;30.698;104.050;2022-07-06T12:05:30;36.20;74.00
17859;DHT22;35426;30.698;104.050;2022-07-06T12:08:07;36.10;74.30
17859;DHT22;35426;30.698;104.050;2022-07-06T12:10:57;36.00;74.20
17859;DHT22;35426;30.698;104.050;2022-07-06T12:13:37;36.00;73.80
17859;DHT22;35426;30.698;104.050;2022-07-06T12:19:42;36.00;73.70
17859;DHT22;35426;30.698;104.050;2022-07-06T12:22:25;35.80;74.10
17859;DHT22;35426;30.698;104.050;2022-07-06T12:24:59;35.90;74.30
17859;DHT22;35426;30.698;104.050;2022-07-06T12:27:46;35.80;74.10
17859;DHT22;35426;30.698;104.050;2022-07-06T12:30:20;35.80;74.40
17859;DHT22;35426;30.698;104.050;2022-07-06T12:33:14;35.70;74.60
17859;DHT22;35426;30.698;104.050;2022-07-06T12:35:49;35.60;74.80
17859;DHT22;35426;30.698;104.050;2022-07-06T12:38:25;35.70;74.80
17859;DHT22;35426;30.698;104.050;2022-07-06T12:41:29;35.60;74.80
17859;DHT22;35426;30.698;104.050;2022-07-06T12:44:20;35.60;75.10
17859;DHT22;35426;30.698;104.050;2022-07-06T12:47:12;35.60;75.00
17859;DHT22;35426;30.698;104.050;2022-07-06T12:50:06;35.70;75.20
17859;DHT22;35426;30.698;104.050;2022-07-06T12:52:40;35.50;75.60
17859;DHT22;35426;30.698;104.050;2022-07-06T12:55:14;35.60;75.70
17859;DHT22;35426;30.698;104.050;2022-07-06T12:57:50;35.60;76.30
17859;DHT22;35426;30.698;104.050;2022-07-06T13:00:27;35.60;75.60
17859;DHT22;35426;30.698;104.050;2022-07-06T13:03:15;35.50;75.90
17859;DHT22;35426;30.698;104.050;2022-07-06T13:05:51;35.50;75.70
17859;DHT22;35426;30.698;104.050;2022-07-06T13:08:25;35.50;75.80
17859;DHT22;35426;30.698;104.050;2022-07-06T13:11:16;35.40;75.90
17859;DHT22;35426;30.698;104.050;2022-07-06T13:13:52;35.40;76.00
17859;DHT22;35426;30.698;104.050;2022-07-06T13:16:29;35.40;76.00
17859;DHT22;35426;30.698;104.050;2022-07-06T13:19:07;35.40;76.20
17859;DHT22;35426;30.698;104.050;2022-07-06T13:21:41;35.30;76.70
17859;DHT22;35426;30.698;104.050;2022-07-06T13:24:16;35.20;76.30
17859;DHT22;35426;30.698;104.050;2022-07-06T13:27:08;35.20;76.60
17859;DHT22;35426;30.698;104.050;2022-07-06T13:29:43;35.10;76.80
17859;DHT22;35426;30.698;104.050;2022-07-06T13:32:25;35.10;77.10
17859;DHT22;35426;30.698;104.050;2022-07-06T13:34:59;35.10;77.10
17859;DHT22;35426;30.698;104.050;2022-07-06T13:37:50;35.20;76.90
17859;DHT22;35426;30.698;104.050;2022-07-06T13:40:24;35.10;76.80
17859;DHT22;35426;30.698;104.050;2022-07-06T13:42:58;35.10;77.10
17859;DHT22;35426;30.698;104.050;2022-07-06T13:45:33;35.10;77.30
17859;DHT22;35426;30.698;104.050;2022-07-06T13:48:09;35.10;77.30
17859;DHT22;35426;30.698;104.050;2022-07-06T13:50:44;35.10;77.70
17859;DHT22;35426;30.698;104.050;2022-07-06T13:53:20;35.10;77.70
17859;DHT22;35426;30.698;104.050;2022-07-06T13:56:12;35.20;77.50
17859;DHT22;35426;30.698;104.050;2022-07-06T13:58:59;35.10;77.70
17859;DHT22;35426;30.698;104.050;2022-07-06T14:01:34;35.10;77.80
17859;DHT22;35426;30.698;104.050;2022-07-06T14:04:12;35.10;78.00
17859;DHT22;35426;30.698;104.050;2022-07-06T14:07:01;35.20;78.00
17859;DHT22;35426;30.698;104.050;2022-07-06T14:09:51;35.20;78.00
17859;DHT22;35426;30.698;104.050;2022-07-06T14:12:39;35.30;77.70
17859;DHT22;35426;30.698;104.050;2022-07-06T14:15:14;35.20;78.00
17859;DHT22;35426;30.698;104.050;2022-07-06T14:18:04;35.20;78.20
17859;DHT22;35426;30.698;104.050;2022-07-06T14:20:56;35.20;78.50
17859;DHT22;35426;30.698;104.050;2022-07-06T14:23:31;35.30;78.50
17859;DHT22;35426;30.698;104.050;2022-07-06T14:26:06;35.40;78.40
17859;DHT22;35426;30.698;104.050;2022-07-06T14:28:40;35.50;78.80
17859;DHT22;35426;30.698;104.050;2022-07-06T14:31:15;35.30;79.40
17859;DHT22;35426;30.698;104.050;2022-07-06T14:33:51;35.10;80.10
17859;DHT22;35426;30.698;104.050;2022-07-06T14:36:28;34.90;80.70
17859;DHT22;35426;30.698;104.050;2022-07-06T14:39:16;34.90;81.10
17859;DHT22;35426;30.698;104.050;2022-07-06T14:41:51;34.80;81.80
17859;DHT22;35426;30.698;104.050;2022-07-06T14:44:53;34.70;83.40
17859;DHT22;35426;30.698;104.050;2022-07-06T14:47:28;34.60;84.00
17859;DHT22;35426;30.698;104.050;2022-07-06T14:50:04;34.60;84.70
17859;DHT22;35426;30.698;104.050;2022-07-06T14:52:41;34.60;85.20
17859;DHT22;35426;30.698;104.050;2022-07-06T14:55:16;34.50;86.50
17859;DHT22;35426;30.698;104.050;2022-07-06T14:57:51;34.40;87.00
17859;DHT22;35426;30.698;104.050;2022-07-06T15:03:34;34.30;88.50
17859;DHT22;35426;30.698;104.050;2022-07-06T15:06:26;34.30;89.50
17859;DHT22;35426;30.698;104.050;2022-07-06T15:09:22;34.30;90.00
17859;DHT22;35426;30.698;104.050;2022-07-06T15:11:58;34.20;90.40
17859;DHT22;35426;30.698;104.050;2022-07-06T15:14:34;34.10;90.70
17859;DHT22;35426;30.698;104.050;2022-07-06T15:17:32;34.10;90.90
17859;DHT22;35426;30.698;104.050;2022-07-06T15:20:16;34.00;91.40
17859;DHT22;35426;30.698;104.050;2022-07-06T15:23:11;34.10;91.40
17859;DHT22;35426;30.698;104.050;2022-07-06T15:25:47;34.10;91.60
17859;DHT22;35426;30.698;104.050;2022-07-06T15:31:16;34.00;92.50
17859;DHT22;35426;30.698;104.050;2022-07-06T15:33:51;34.00;92.80
17859;DHT22;35426;30.698;104.050;2022-07-06T15:36:26;33.90;93.30
17859;DHT22;35426;30.698;104.050;2022-07-06T15:39:00;33.80;93.60
17859;DHT22;35426;30.698;104.050;2022-07-06T15:41:37;33.80;93.80
17859;DHT22;35426;30.698;104.050;2022-07-06T15:44:11;33.80;93.90
17859;DHT22;35426;30.698;104.050;2022-07-06T15:46:46;33.80;94.10
17859;DHT22;35426;30.698;104.050;2022-07-06T15:49:20;33.80;94.50
17859;DHT22;35426;30.698;104.050;2022-07-06T15:52:12;33.80;94.70
17859;DHT22;35426;30.698;104.050;2022-07-06T15:55:02;33.80;94.70
17859;DHT22;35426;30.698;104.050;2022-07-06T15:57:55;33.70;95.10
17859;DHT22;35426;30.698;104.050;2022-07-06T16:00:30;33.70;95.50
17859;DHT22;35426;30.698;104.050;2022-07-06T16:03:05;33.50;95.60
17859;DHT22;35426;30.698;104.050;2022-07-06T16:05:40;33.50;95.90
17859;DHT22;35426;30.698;104.050;2022-07-06T16:08:34;33.50;96.10
17859;DHT22;35426;30.698;104.050;2022-07-06T16:11:14;33.50;96.40
17859;DHT22;35426;30.698;104.050;2022-07-06T16:17:01;33.40;96.60
17859;DHT22;35426;30.698;104.050;2022-07-06T16:19:36;33.40;96.40
17859;DHT22;35426;30.698;104.050;2022-07-06T16:22:28;33.40;96.50
17859;DHT22;35426;30.698;104.050;2022-07-06T16:25:02;33.40;96.30
17859;DHT22;35426;30.698;104.050;2022-07-06T16:27:37;33.40;96.50
17859;DHT22;35426;30.698;104.050;2022-07-06T16:30:13;33.40;96.60
17859;DHT22;35426;30.698;104.050;2022-07-06T16:32:53;33.40;96.90
17859;DHT22;35426;30.698;104.050;2022-07-06T16:35:27;33.30;97.50
17859;DHT22;35426;30.698;104.050;2022-07-06T16:38:02;33.20;97.70
17859;DHT22;35426;30.698;104.050;2022-07-06T16:40:36;33.10;98.50
17859;DHT22;35426;30.698;104.050;2022-07-06T16:43:10;33.10;99.10
17859;DHT22;35426;30.698;104.050;2022-07-06T16:45:45;33.10;99.10
17859;DHT22;35426;30.698;104.050;2022-07-06T16:48:21;33.00;99.70
17859;DHT22;35426;30.698;104.050;2022-07-06T16:50:55;33.10;99.70
17859;DHT22;35426;30.698;104.050;2022-07-06T16:53:29;33.00;99.90
17859;DHT22;35426;30.698;104.050;2022-07-06T16:56:04;33.10;99.90
17859;DHT22;35426;30.698;104.050;2022-07-06T16:58:39;33.10;99.90
17859;DHT22;35426;30.698;104.050;2022-07-06T17:01:13;33.10;99.90
17859;DHT22;35426;30.698;104.050;2022-07-06T17:04:07;33.00;99.90
17859;DHT22;35426;30.698;104.050;2022-07-06T17:06:45;33.10;99.90
17859;DHT22;35426;30.698;104.050;2022-07-06T17:09:19;33.00;99.70
17859;DHT22;35426;30.698;104.050;2022-07-06T17:11:53;33.20;99.80
17859;DHT22;35426;30.698;104.050;2022-07-06T17:14:30;33.20;99.40
17859;DHT22;35426;30.698;104.050;2022-07-06T17:17:05;33.20;99.20
17859;DHT22;35426;30.698;104.050;2022-07-06T17:22:33;33.30;99.40
17859;DHT22;35426;30.698;104.050;2022-07-06T17:25:09;33.20;99.40
17859;DHT22;35426;30.698;104.050;2022-07-06T17:27:43;33.20;99.70
17859;DHT22;35426;30.698;104.050;2022-07-06T17:30:23;33.00;99.90
17859;DHT22;35426;30.698;104.050;2022-07-06T17:32:58;33.00;99.90
17859;DHT22;35426;30.698;104.050;2022-07-06T17:35:34;33.00;99.80
17859;DHT22;35426;30.698;104.050;2022-07-06T17:38:10;33.00;99.80
17859;DHT22;35426;30.698;104.050;2022-07-06T17:40:45;33.00;99.70
17859;DHT22;35426;30.698;104.050;2022-07-06T17:43:20;32.90;99.70
17859;DHT22;35426;30.698;104.050;2022-07-06T17:46:12;32.90;99.70
17859;DHT22;35426;30.698;104.050;2022-07-06T17:48:46;32.80;99.90
17859;DHT22;35426;30.698;104.050;2022-07-06T17:51:22;32.80;99.90
17859;DHT22;35426;30.698;104.050;2022-07-06T17:54:12;32.70;99.90
17859;DHT22;35426;30.698;104.050;2022-07-06T17:56:46;32.90;99.90
17859;DHT22;35426;30.698;104.050;2022-07-06T18:02:34;32.90;99.90
17859;DHT22;35426;30.698;104.050;2022-07-06T18:05:09;32.90;99.90
17859;DHT22;35426;30.698;104.050;2022-07-06T18:07:57;32.80;99.80
17859;DHT22;35426;30.698;104.050;2022-07-06T18:10:32;32.70;99.90
17859;DHT22;35426;30.698;104.050;2022-07-06T18:13:05;32.60;99.90
17859;DHT22;35426;30.698;104.050;2022-07-06T18:15:39;32.70;99.90
17859;DHT22;35426;30.698;104.050;2022-07-06T18:18:13;32.70;99.90
17859;DHT22;35426;30.698;104.050;2022-07-06T18:20:47;32.60;99.90
17859;DHT22;35426;30.698;104.050;2022-07-06T18:23:25;32.70;99.90
17859;DHT22;35426;30.698;104.050;2022-07-06T18:26:02;32.70;99.90
17859;DHT22;35426;30.698;104.050;2022-07-06T18:28:38;32.50;99.90
17859;DHT22;35426;30.698;104.050;2022-07-06T18:31:30;32.50;99.90
17859;DHT22;35426;30.698;104.050;2022-07-06T18:34:20;32.40;99.90
17859;DHT22;35426;30.698;104.050;2022-07-06T18:36:55;32.30;99.90
17859;DHT22;35426;30.698;104.050;2022-07-06T18:39:31;32.30;99.90
17859;DHT22;35426;30.698;104.050;2022-07-06T18:42:05;32.30;99.90
17859;DHT22;35426;30.698;104.050;2022-07-06T18:44:42;32.20;99.90
17859;DHT22;35426;30.698;104.050;2022-07-06T18:47:17;32.10;99.90
17859;DHT22;35426;30.698;104.050;2022-07-06T18:49:52;32.10;99.90
17859;DHT22;35426;30.698;104.050;2022-07-06T18:52:27;32.10;99.90
17859;DHT22;35426;30.698;104.050;2022-07-06T18:55:04;32.10;99.90
17859;DHT22;35426;30.698;104.050;2022-07-06T19:00:34;32.10;99.90
17859;DHT22;35426;30.698;104.050;2022-07-06T19:03:08;31.90;99.90
17859;DHT22;35426;30.698;104.050;2022-07-06T19:05:59;32.00;99.90
17859;DHT22;35426;30.698;104.050;2022-07-06T19:08:33;31.90;99.90
17859;DHT22;35426;30.698;104.050;2022-07-06T19:11:10;32.00;99.90
17859;DHT22;35426;30.698;104.050;2022-07-06T19:13:50;32.00;99.90
17859;DHT22;35426;30.698;104.050;2022-07-06T19:16:24;31.90;99.90
17859;DHT22;35426;30.698;104.050;2022-07-06T19:19:16;31.90;99.90
17859;DHT22;35426;30.698;104.050;2022-07-06T19:21:50;32.00;99.90
17859;DHT22;35426;30.698;104.050;2022-07-06T19:24:42;32.00;99.90
17859;DHT22;35426;30.698;104.050;2022-07-06T19:27:36;32.00;99.90
17859;DHT22;35426;30.698;104.050;2022-07-06T19:30:11;31.90;99.90
17859;DHT22;35426;30.698;104.050;2022-07-06T19:33:03;31.80;99.90
17859;DHT22;35426;30.698;104.050;2022-07-06T19:35:54;31.90;99.90